Time;durP1;ratioP1;P1;durP2;ratioP2;P2;SDS_P1;SDS_P2;PMS_P1;PMS_P2;Temp;Humidity;BMP_temperature;BMP_pressure;BME280_temperature;BME280_humidity;BME280_pressure;Samples;Min_cycle;Max_cycle;Signal;HPM_P1;HPM_P2
2021/01/17 00:01:58;;;;;;;9.35;7.68;;;;;;;-144.01;100.00;62166.59;5115676;28;20362;-66
2021/01/17 00:04:25;;;;;;;9.82;8.00;;;;;;;-144.01;100.00;62166.59;5101339;28;20067;-58
2021/01/17 00:06:52;;;;;;;9.18;7.47;;;;;;;-144.01;100.00;62166.59;5094063;28;20048;-62
2021/01/17 00:09:21;;;;;;;9.27;7.57;;;;;;;-144.01;100.00;62166.59;5095453;28;20043;-67
2021/01/17 00:11:50;;;;;;;9.48;7.63;;;;;;;-144.01;100.00;62166.59;5085309;28;20050;-63
2021/01/17 00:14:19;;;;;;;15.55;8.70;;;;;;;-144.01;100.00;62166.59;5098424;28;20065;-69
2021/01/17 00:16:48;;;;;;;11.00;8.85;;;;;;;-144.01;100.00;62166.59;5092048;28;20048;-65
2021/01/17 00:19:16;;;;;;;9.77;8.10;;;;;;;-144.01;100.00;62166.59;5075857;28;20339;-67
2021/01/17 00:21:45;;;;;;;10.23;8.00;;;;;;;-144.01;100.00;62166.59;5089972;28;20048;-66
2021/01/17 00:24:12;;;;;;;9.82;8.25;;;;;;;-144.01;100.00;62166.59;5060377;28;20362;-66
2021/01/17 00:26:40;;;;;;;10.77;8.02;;;;;;;-144.01;100.00;62166.59;5085809;28;20047;-62
2021/01/17 00:29:07;;;;;;;10.75;8.35;;;;;;;-144.01;100.00;62166.59;5093777;28;20055;-65
2021/01/17 00:31:38;;;;;;;10.20;8.57;;;;;;;-144.01;100.00;62166.59;5092479;28;20044;-66
2021/01/17 00:34:07;;;;;;;10.88;8.52;;;;;;;-144.01;100.00;62166.59;5077218;28;20048;-66
2021/01/17 00:36:39;;;;;;;11.68;8.98;;;;;;;-144.01;100.00;62166.59;5099432;28;20040;-66
2021/01/17 00:39:09;;;;;;;11.70;9.48;;;;;;;-144.01;100.00;62166.59;5084915;28;20055;-66
2021/01/17 00:41:39;;;;;;;11.00;9.13;;;;;;;-144.01;100.00;62166.59;5088239;28;20047;-66
2021/01/17 00:44:08;;;;;;;10.75;8.82;;;;;;;-144.01;100.00;62166.59;5096643;28;20043;-67
2021/01/17 00:46:40;;;;;;;10.18;8.20;;;;;;;-144.01;100.00;62166.59;5111945;28;20059;-63
2021/01/17 00:49:09;;;;;;;10.73;8.30;;;;;;;-144.01;100.00;62166.59;5114115;28;20366;-66
2021/01/17 00:51:45;;;;;;;10.07;8.13;;;;;;;-144.01;100.00;62166.59;5114769;28;20056;-62
2021/01/17 00:54:16;;;;;;;10.75;8.57;;;;;;;-144.01;100.00;62166.59;5097044;28;20043;-65
2021/01/17 00:56:45;;;;;;;10.68;8.80;;;;;;;-144.01;100.00;62166.59;5095437;28;20446;-65
2021/01/17 00:59:15;;;;;;;10.50;8.93;;;;;;;-144.01;100.00;62166.59;5096669;28;20394;-65
2021/01/17 01:01:48;;;;;;;14.10;9.45;;;;;;;-144.01;100.00;62166.59;5087099;28;20051;-59
2021/01/17 01:04:19;;;;;;;14.70;10.25;;;;;;;-144.01;100.00;62166.59;5114464;28;20052;-63
2021/01/17 01:06:52;;;;;;;13.55;9.80;;;;;;;-144.01;100.00;62166.59;5112628;28;20357;-61
2021/01/17 01:09:19;;;;;;;14.10;10.05;;;;;;;-144.01;100.00;62166.59;5114881;28;20055;-63
2021/01/17 01:11:48;;;;;;;9.27;8.25;;;;;;;-144.01;100.00;62166.59;5115037;28;20082;-62
2021/01/17 01:14:17;;;;;;;13.82;8.35;;;;;;;-144.01;100.00;62166.59;5115446;28;20353;-64
2021/01/17 01:16:54;;;;;;;10.20;7.80;;;;;;;-144.01;100.00;62166.59;5113326;28;20055;-58
2021/01/17 01:19:24;;;;;;;9.20;7.65;;;;;;;-144.01;100.00;62166.59;5115004;28;20047;-65
2021/01/17 01:21:51;;;;;;;9.10;7.90;;;;;;;-144.01;100.00;62166.59;5112766;28;20050;-57
2021/01/17 01:24:18;;;;;;;10.57;8.70;;;;;;;-144.01;100.00;62166.59;5114953;28;20058;-61
2021/01/17 01:26:47;;;;;;;10.35;8.27;;;;;;;-144.01;100.00;62166.59;5113994;28;20046;-64
2021/01/17 01:29:15;;;;;;;9.50;7.90;;;;;;;-144.01;100.00;62166.59;5113865;28;20047;-66
2021/01/17 01:31:43;;;;;;;9.68;8.32;;;;;;;-144.01;100.00;62166.59;5108958;28;20312;-61
2021/01/17 01:34:11;;;;;;;11.38;9.57;;;;;;;-144.01;100.00;62166.59;5113695;28;20043;-58
2021/01/17 01:36:40;;;;;;;12.10;9.63;;;;;;;-144.01;100.00;62166.59;5113049;28;20043;-60
2021/01/17 01:39:12;;;;;;;12.00;10.32;;;;;;;-144.01;100.00;62166.59;5093101;28;20047;-64
2021/01/17 01:41:41;;;;;;;12.93;9.23;;;;;;;-144.01;100.00;62166.59;5118575;28;20043;-66
2021/01/17 01:44:10;;;;;;;10.77;8.77;;;;;;;-144.01;100.00;62166.59;5119011;28;20342;-61
2021/01/17 01:46:40;;;;;;;12.85;10.02;;;;;;;-144.01;100.00;62166.59;5118837;28;20480;-65
2021/01/17 01:49:09;;;;;;;12.88;10.32;;;;;;;-144.01;100.00;62166.59;5118533;28;20059;-65
2021/01/17 01:51:38;;;;;;;11.68;8.98;;;;;;;-144.01;100.00;62166.59;5118677;28;20063;-63
2021/01/17 01:54:09;;;;;;;12.18;9.10;;;;;;;-144.01;100.00;62166.59;5118966;28;20454;-66
2021/01/17 01:56:36;;;;;;;13.00;10.00;;;;;;;-144.01;100.00;62166.59;5118911;28;20464;-61
2021/01/17 01:59:05;;;;;;;12.90;9.63;;;;;;;-144.01;100.00;62166.59;5099812;28;20063;-59
2021/01/17 02:01:33;;;;;;;11.77;9.20;;;;;;;-144.01;100.00;62166.59;5118820;28;20043;-59
2021/01/17 02:04:01;;;;;;;12.85;9.82;;;;;;;-144.01;100.00;62166.59;5116536;28;20062;-60
2021/01/17 02:06:29;;;;;;;11.60;9.15;;;;;;;-144.01;100.00;62166.59;5117314;28;20059;-61
2021/01/17 02:09:15;;;;;;;11.68;8.80;;;;;;;-144.01;100.00;62166.59;5115644;28;20047;-63
2021/01/17 02:12:09;;;;;;;11.90;9.32;;;;;;;-144.01;100.00;62166.59;5115383;28;20048;-58
2021/01/17 02:15:03;;;;;;;11.63;8.93;;;;;;;-144.01;100.00;62166.59;5115900;28;20054;-61
2021/01/17 02:17:33;;;;;;;10.07;8.45;;;;;;;-144.01;100.00;62166.59;5100073;28;20043;-58
2021/01/17 02:20:09;;;;;;;10.60;8.65;;;;;;;-144.01;100.00;62166.59;5116907;28;20046;-73
2021/01/17 02:23:01;;;;;;;10.27;8.23;;;;;;;-144.01;100.00;62166.59;5114870;28;20058;-60
2021/01/17 02:25:35;;;;;;;10.05;7.65;;;;;;;-144.01;100.00;62166.59;5116896;28;20082;-64
2021/01/17 02:28:09;;;;;;;10.23;8.18;;;;;;;-144.01;100.00;62166.59;5115171;28;20047;-66
2021/01/17 02:30:40;;;;;;;9.82;8.20;;;;;;;-144.01;100.00;62166.59;5114219;28;20051;-63
2021/01/17 02:33:23;;;;;;;10.13;8.50;;;;;;;-144.01;100.00;62166.59;5117704;28;20445;-63
2021/01/17 02:35:54;;;;;;;10.82;8.15;;;;;;;-144.01;100.00;62166.59;5107323;28;20057;-64
2021/01/17 02:38:53;;;;;;;9.27;7.72;;;;;;;-144.01;100.00;62166.59;5103477;28;20043;-64
2021/01/17 02:41:26;;;;;;;10.55;8.40;;;;;;;-144.01;100.00;62166.59;5052389;28;20044;-66
2021/01/17 02:43:53;;;;;;;;;;;;;;;-144.01;100.00;62166.59;5117210;28;20469;-61
2021/01/17 02:46:20;;;;;;;9.75;7.97;;;;;;;-144.01;100.00;62166.59;5115380;27;19915;-67
2021/01/17 02:48:48;;;;;;;9.80;7.93;;;;;;;-144.01;100.00;62166.59;5117394;28;20063;-64
2021/01/17 02:51:15;;;;;;;10.02;7.97;;;;;;;-144.01;100.00;62166.59;5117332;28;20056;-67
2021/01/17 02:53:45;;;;;;;10.77;8.25;;;;;;;-144.01;100.00;62166.59;5106590;28;20039;-67
2021/01/17 02:56:19;;;;;;;10.48;8.27;;;;;;;-144.01;100.00;62166.59;5114939;28;20070;-66
2021/01/17 02:58:51;;;;;;;9.63;7.72;;;;;;;-144.01;100.00;62166.59;5104949;28;20059;-60
2021/01/17 03:01:21;;;;;;;11.55;8.35;;;;;;;-144.01;100.00;62166.59;5108075;28;20043;-57
2021/01/17 03:03:49;;;;;;;10.05;8.20;;;;;;;-144.01;100.00;62166.59;5115231;28;20078;-64
2021/01/17 03:06:17;;;;;;;10.38;8.40;;;;;;;-144.01;100.00;62166.59;5106854;28;20043;-60
2021/01/17 03:08:44;;;;;;;10.68;8.43;;;;;;;-144.01;100.00;62166.59;5107407;28;20058;-67
2021/01/17 03:11:12;;;;;;;11.27;8.75;;;;;;;-144.01;100.00;62166.59;5107697;28;20051;-65
2021/01/17 03:13:41;;;;;;;10.30;8.30;;;;;;;-144.01;100.00;62166.59;5114723;28;20047;-63
2021/01/17 03:16:08;;;;;;;10.90;8.10;;;;;;;-144.01;100.00;62166.59;5105638;28;20051;-57
2021/01/17 03:18:35;;;;;;;9.85;7.95;;;;;;;-144.01;100.00;62166.59;5117431;28;20085;-66
2021/01/17 03:21:03;;;;;;;10.80;7.75;;;;;;;-144.01;100.00;62166.59;5117322;28;20359;-58
2021/01/17 03:23:30;;;;;;;9.98;7.75;;;;;;;-144.01;100.00;62166.59;5117251;28;20500;-60
2021/01/17 03:25:58;;;;;;;11.63;8.57;;;;;;;-144.01;100.00;62166.59;5114399;28;20047;-62
2021/01/17 03:28:25;;;;;;;12.18;8.45;;;;;;;-144.01;100.00;62166.59;5112597;28;20055;-62
2021/01/17 03:30:52;;;;;;;10.75;7.88;;;;;;;-144.01;100.00;62166.59;5117003;28;20386;-58
2021/01/17 03:33:19;;;;;;;9.30;7.70;;;;;;;-144.01;100.00;62166.59;5115487;28;20050;-63
2021/01/17 03:35:47;;;;;;;8.88;7.18;;;;;;;-144.01;100.00;62166.59;5115309;28;20054;-58
2021/01/17 03:38:14;;;;;;;9.63;7.53;;;;;;;-144.01;100.00;62166.59;5115956;28;20054;-58
2021/01/17 03:40:42;;;;;;;8.63;7.20;;;;;;;-144.01;100.00;62166.59;5115897;28;20050;-58
2021/01/17 03:43:10;;;;;;;9.60;7.38;;;;;;;-144.01;100.00;62166.59;5112741;28;20062;-57
2021/01/17 03:45:37;;;;;;;8.98;7.30;;;;;;;-144.01;100.00;62166.59;5116775;28;20059;-58
2021/01/17 03:48:05;;;;;;;9.30;7.18;;;;;;;-144.01;100.00;62166.59;5116099;28;20058;-61
2021/01/17 03:50:32;;;;;;;8.77;7.13;;;;;;;-144.01;100.00;62166.59;5115183;28;20051;-64
2021/01/17 03:53:00;;;;;;;8.85;7.20;;;;;;;-144.01;100.00;62166.59;5116069;28;20058;-56
2021/01/17 03:55:27;;;;;;;9.88;7.20;;;;;;;-144.01;100.00;62166.59;5116718;28;20051;-62
2021/01/17 03:57:55;;;;;;;9.10;7.20;;;;;;;-144.01;100.00;62166.59;5113743;28;20051;-61
2021/01/17 04:00:22;;;;;;;8.25;7.03;;;;;;;-144.01;100.00;62166.59;5115952;28;20048;-61
2021/01/17 04:02:49;;;;;;;8.85;7.22;;;;;;;-144.01;100.00;62166.59;5116351;28;20048;-58
2021/01/17 04:05:16;;;;;;;9.13;7.22;;;;;;;-144.01;100.00;62166.59;5099703;28;20048;-58
2021/01/17 04:07:43;;;;;;;8.52;7.47;;;;;;;-144.01;100.00;62166.59;5099610;28;20054;-61
2021/01/17 04:10:11;;;;;;;9.90;8.48;;;;;;;-144.01;100.00;62166.59;5104799;28;20442;-67
2021/01/17 04:12:42;;;;;;;9.80;7.38;;;;;;;-144.01;100.00;62166.59;5112158;28;20043;-71
2021/01/17 04:15:10;;;;;;;9.20;7.35;;;;;;;-144.01;100.00;62166.59;5115914;28;20055;-63
2021/01/17 04:17:39;;;;;;;10.43;7.55;;;;;;;-144.01;100.00;62166.59;5097791;28;20349;-68
2021/01/17 04:20:07;;;;;;;8.45;7.20;;;;;;;-144.01;100.00;62166.59;5114385;28;20054;-62
2021/01/17 04:22:38;;;;;;;8.65;7.57;;;;;;;-144.01;100.00;62166.59;5113050;28;20452;-66
2021/01/17 04:25:07;;;;;;;9.13;7.75;;;;;;;-144.01;100.00;62166.59;5113243;28;20043;-63
2021/01/17 04:27:34;;;;;;;8.20;6.97;;;;;;;-144.01;100.00;62166.59;5095898;28;20047;-58
2021/01/17 04:30:02;;;;;;;8.65;6.72;;;;;;;-144.01;100.00;62166.59;5109267;28;20043;-65
2021/01/17 04:32:29;;;;;;;9.35;7.20;;;;;;;-144.01;100.00;62166.59;5115911;28;20048;-65
2021/01/17 04:34:57;;;;;;;9.88;7.93;;;;;;;-144.01;100.00;62166.59;5115479;28;20445;-61
2021/01/17 04:37:25;;;;;;;10.55;7.95;;;;;;;-144.01;100.00;62166.59;5097575;28;20047;-62
2021/01/17 04:39:52;;;;;;;9.27;6.95;;;;;;;-144.01;100.00;62166.59;5115772;28;20043;-57
2021/01/17 04:42:21;;;;;;;8.52;6.60;;;;;;;-144.01;100.00;62166.59;5115821;28;20051;-61
2021/01/17 04:44:54;;;;;;;8.45;6.57;;;;;;;-144.01;100.00;62166.59;5098062;28;20055;-60
2021/01/17 04:47:21;;;;;;;;;;;;;;;-144.01;100.00;62166.59;5098087;28;20362;-56
2021/01/17 04:49:53;;;;;;;10.90;7.60;;;;;;;-144.01;100.00;62166.59;5115096;28;19915;-65
2021/01/17 04:52:25;;;;;;;10.85;7.18;;;;;;;-144.01;100.00;62166.59;5115477;28;20370;-57
2021/01/17 04:54:54;;;;;;;13.15;9.00;;;;;;;-144.01;100.00;62166.59;5108757;28;20051;-62
2021/01/17 04:57:45;;;;;;;13.10;9.65;;;;;;;-144.01;100.00;62166.59;5113793;28;20047;-63
2021/01/17 05:00:28;;;;;;;12.63;8.52;;;;;;;-144.01;100.00;62166.59;5115408;28;20051;-59
2021/01/17 05:03:20;;;;;;;11.37;8.57;;;;;;;-144.01;100.00;62166.59;5115836;28;20047;-61
2021/01/17 05:06:02;;;;;;;11.15;8.52;;;;;;;-144.01;100.00;62166.59;5115866;28;20589;-56
2021/01/17 05:08:33;;;;;;;13.40;9.53;;;;;;;-144.01;100.00;62166.59;5114652;28;20047;-60
2021/01/17 05:11:06;;;;;;;12.80;9.75;;;;;;;-144.01;100.00;62166.59;5115784;28;20293;-61
2021/01/17 05:13:36;;;;;;;10.65;8.13;;;;;;;-144.01;100.00;62166.59;5111822;28;20054;-62
2021/01/17 05:16:06;;;;;;;11.52;7.90;;;;;;;-144.01;100.00;62166.59;5115405;28;20067;-63
2021/01/17 05:18:37;;;;;;;11.07;8.90;;;;;;;-144.01;100.00;62166.59;5112337;28;20052;-59
2021/01/17 05:21:05;;;;;;;11.38;8.55;;;;;;;-144.01;100.00;62166.59;5095609;28;20051;-59
2021/01/17 05:23:35;;;;;;;9.05;6.95;;;;;;;-144.01;100.00;62166.59;5103455;28;20365;-64
2021/01/17 05:26:06;;;;;;;8.15;6.38;;;;;;;-144.01;100.00;62166.59;5115387;28;20468;-61
2021/01/17 05:28:34;;;;;;;9.35;6.90;;;;;;;-144.01;100.00;62166.59;5113382;28;20051;-63
2021/01/17 05:31:01;;;;;;;12.30;8.30;;;;;;;-144.01;100.00;62166.59;5112326;28;20036;-59
2021/01/17 05:33:30;;;;;;;12.65;8.30;;;;;;;-144.01;100.00;62166.59;5115600;28;20608;-65
2021/01/17 05:35:59;;;;;;;10.57;8.27;;;;;;;-144.01;100.00;62166.59;5115477;28;20051;-61
2021/01/17 05:38:27;;;;;;;8.70;7.03;;;;;;;-144.01;100.00;62166.59;5113595;28;20461;-58
2021/01/17 05:40:54;;;;;;;12.77;9.32;;;;;;;-144.01;100.00;62166.59;5116704;28;20335;-57
2021/01/17 05:43:22;;;;;;;13.07;9.68;;;;;;;-144.01;100.00;62166.59;5115111;28;20346;-57
2021/01/17 05:45:49;;;;;;;10.10;7.45;;;;;;;-144.01;100.00;62166.59;5115702;28;20048;-62
2021/01/17 05:48:16;;;;;;;11.90;8.82;;;;;;;-144.01;100.00;62166.59;5114826;28;20043;-63
2021/01/17 05:50:45;;;;;;;9.60;7.53;;;;;;;-144.01;100.00;62166.59;5115049;28;20043;-61
2021/01/17 05:53:12;;;;;;;9.82;7.40;;;;;;;-144.01;100.00;62166.59;5115289;28;20044;-57
2021/01/17 05:55:40;;;;;;;9.38;7.60;;;;;;;-144.01;100.00;62166.59;5115316;28;20059;-68
2021/01/17 05:58:22;;;;;;;11.48;8.25;;;;;;;-144.01;100.00;62166.59;5114756;28;20412;-65
2021/01/17 06:00:58;;;;;;;11.95;9.43;;;;;;;-144.01;100.00;62166.59;5115189;28;20051;-56
2021/01/17 06:03:29;;;;;;;13.00;10.85;;;;;;;-144.01;100.00;62166.59;5115244;28;20066;-61
2021/01/17 06:06:00;;;;;;;12.35;10.18;;;;;;;-144.01;100.00;62166.59;5115203;28;20450;-62
2021/01/17 06:08:28;;;;;;;11.90;9.95;;;;;;;-144.01;100.00;62166.59;5114448;28;20457;-62
2021/01/17 06:11:06;;;;;;;12.50;9.52;;;;;;;-144.01;100.00;62166.59;5114934;28;20841;-67
2021/01/17 06:13:39;;;;;;;9.48;7.95;;;;;;;-144.01;100.00;62166.59;5107740;28;20047;-57
2021/01/17 06:16:26;;;;;;;9.30;7.68;;;;;;;-144.01;100.00;62166.59;5094278;28;20083;-58
2021/01/17 06:18:55;;;;;;;12.05;8.27;;;;;;;-144.01;100.00;62166.59;5114065;28;20051;-60
2021/01/17 06:21:24;;;;;;;11.50;9.13;;;;;;;-144.01;100.00;62166.59;5114123;28;20043;-61
2021/01/17 06:23:59;;;;;;;12.63;9.68;;;;;;;-144.01;100.00;62166.59;5113697;28;20446;-63
2021/01/17 06:26:34;;;;;;;11.80;9.98;;;;;;;-144.01;100.00;62166.59;5113839;28;20435;-64
2021/01/17 06:29:05;;;;;;;14.02;11.10;;;;;;;-144.01;100.00;62166.59;5117860;28;20446;-64
2021/01/17 06:31:33;;;;;;;14.77;11.00;;;;;;;-144.01;100.00;62166.59;5117830;28;20047;-64
2021/01/17 06:34:04;;;;;;;15.55;11.38;;;;;;;-144.01;100.00;62166.59;5118012;28;20048;-59
2021/01/17 06:36:32;;;;;;;15.10;11.05;;;;;;;-144.01;100.00;62166.59;5098665;28;20052;-60
2021/01/17 06:38:59;;;;;;;13.77;11.43;;;;;;;-144.01;100.00;62166.59;5097397;28;20047;-64
2021/01/17 06:41:40;;;;;;;15.32;11.77;;;;;;;-144.01;100.00;62166.59;5097482;28;20040;-64
2021/01/17 06:44:12;;;;;;;15.50;12.13;;;;;;;-144.01;100.00;62166.59;5102081;28;20461;-65
2021/01/17 06:46:43;;;;;;;16.00;11.63;;;;;;;-144.01;100.00;62166.59;5103011;28;20067;-64
2021/01/17 06:49:26;;;;;;;16.90;12.57;;;;;;;-144.01;100.00;62166.59;5097928;28;20118;-65
2021/01/17 06:51:55;;;;;;;14.38;11.05;;;;;;;-144.01;100.00;62166.59;5097387;28;20464;-64
2021/01/17 06:54:41;;;;;;;14.00;10.27;;;;;;;-144.01;100.00;62166.59;5097583;28;20054;-61
2021/01/17 06:57:08;;;;;;;19.70;14.65;;;;;;;-144.01;100.00;62166.59;5114547;28;20051;-61
2021/01/17 06:59:43;;;;;;;19.95;14.45;;;;;;;-144.01;100.00;62166.59;5117998;28;20059;-59
2021/01/17 07:02:16;;;;;;;22.13;15.60;;;;;;;-144.01;100.00;62166.59;5104526;28;20572;-65
2021/01/17 07:04:52;;;;;;;;;;;;;;;-144.01;100.00;62166.59;5098458;28;20062;-57
2021/01/17 07:07:56;;;;;;;23.02;16.85;;;;;;;-144.01;100.00;62166.59;5115145;28;19922;-63
2021/01/17 07:10:24;;;;;;;17.73;13.80;;;;;;;-144.01;100.00;62166.59;5116804;28;20048;-62
2021/01/17 07:13:17;;;;;;;16.30;12.02;;;;;;;-144.01;100.00;62166.59;5117454;28;20548;-62
2021/01/17 07:15:46;;;;;;;15.98;11.70;;;;;;;-144.01;100.00;62166.59;5104006;28;20051;-65
2021/01/17 07:18:14;;;;;;;15.55;11.90;;;;;;;-144.01;100.00;62166.59;5107699;28;20054;-59
2021/01/17 07:20:43;;;;;;;15.70;11.93;;;;;;;-144.01;100.00;62166.59;5117332;28;20048;-62
2021/01/17 07:23:14;;;;;;;14.00;10.55;;;;;;;-144.01;100.00;62166.59;5114843;28;20044;-57
2021/01/17 07:25:43;;;;;;;9.82;7.72;;;;;;;-144.01;100.00;62166.59;5116947;28;20044;-60
2021/01/17 07:28:21;;;;;;;8.52;6.68;;;;;;;-144.01;100.00;62166.59;5114673;28;20047;-57
2021/01/17 07:31:00;;;;;;;9.23;7.15;;;;;;;-144.01;100.00;62166.59;5116823;28;20051;-59
2021/01/17 07:33:29;;;;;;;9.85;7.72;;;;;;;-144.01;100.00;62166.59;5114835;28;20046;-70
2021/01/17 07:35:58;;;;;;;10.13;7.72;;;;;;;-144.01;100.00;62166.59;5116423;28;20048;-71
2021/01/17 07:38:27;;;;;;;10.57;7.75;;;;;;;-144.01;100.00;62166.59;5116254;28;20074;-69
2021/01/17 07:40:58;;;;;;;10.13;8.00;;;;;;;-144.01;100.00;62166.59;5116986;28;20059;-69
2021/01/17 07:43:29;;;;;;;11.65;10.23;;;;;;;-144.01;100.00;62166.59;5115333;28;20066;-68
2021/01/17 07:46:01;;;;;;;10.80;8.20;;;;;;;-144.01;100.00;62166.59;5116426;28;20055;-69
2021/01/17 07:48:28;;;;;;;10.43;7.90;;;;;;;-144.01;100.00;62166.59;5114093;28;20450;-66
2021/01/17 07:50:57;;;;;;;10.00;6.95;;;;;;;-144.01;100.00;62166.59;5116566;28;20273;-72
2021/01/17 07:53:36;;;;;;;8.73;6.95;;;;;;;-144.01;100.00;62166.59;5115510;28;20044;-61
2021/01/17 07:56:14;;;;;;;8.43;7.10;;;;;;;-144.01;100.00;62166.59;5116184;28;20052;-70
2021/01/17 07:58:51;;;;;;;8.80;6.90;;;;;;;-144.01;100.00;62166.59;5117154;28;20054;-69
2021/01/17 08:01:38;;;;;;;8.65;6.60;;;;;;;-144.01;100.00;62166.59;5107006;28;20044;-69
2021/01/17 08:04:05;;;;;;;8.70;6.78;;;;;;;-144.01;100.00;62166.59;5116291;28;20051;-71
2021/01/17 08:06:57;;;;;;;9.43;6.88;;;;;;;-144.01;100.00;62166.59;5116338;28;20052;-73
2021/01/17 08:09:44;;;;;;;9.57;7.88;;;;;;;-144.01;100.00;62166.59;5116091;28;20039;-72
2021/01/17 08:12:32;;;;;;;10.07;7.68;;;;;;;-144.01;100.00;62166.59;5116654;28;20047;-70
2021/01/17 08:15:22;;;;;;;9.50;7.25;;;;;;;-144.01;100.00;62166.59;5109973;28;20381;-69
2021/01/17 08:17:50;;;;;;;10.20;8.63;;;;;;;-144.01;100.00;62166.59;5102166;28;20056;-80
2021/01/17 08:20:28;;;;;;;14.07;9.32;;;;;;;-144.01;100.00;62166.59;5095527;28;20052;-78
2021/01/17 08:23:05;;;;;;;11.15;8.30;;;;;;;-144.01;100.00;62166.59;5115027;28;20039;-74
2021/01/17 08:25:55;;;;;;;17.50;11.32;;;;;;;-144.01;100.00;62166.59;5115969;28;20047;-74
2021/01/17 08:28:36;;;;;;;10.32;7.43;;;;;;;-144.01;100.00;62166.59;5103931;28;20082;-79
2021/01/17 08:31:34;;;;;;;9.45;6.82;;;;;;;-144.01;100.00;62166.59;5112591;28;20351;-72
2021/01/17 08:34:11;;;;;;;12.98;7.72;;;;;;;-144.01;100.00;62166.59;5112635;28;20053;-73
2021/01/17 08:36:39;;;;;;;12.07;5.65;;;;;;;-144.01;100.00;62166.59;5111927;28;20050;-67
2021/01/17 08:39:06;;;;;;;10.70;7.32;;;;;;;-144.01;100.00;62166.59;5108998;28;20040;-70
2021/01/17 08:41:35;;;;;;;9.50;5.95;;;;;;;-144.01;100.00;62166.59;5111873;28;20044;-76
2021/01/17 08:44:02;;;;;;;9.90;6.73;;;;;;;-144.01;100.00;62166.59;5097399;28;20366;-68
2021/01/17 08:46:38;;;;;;;9.97;6.97;;;;;;;-144.01;100.00;62166.59;5097909;28;20047;-69
2021/01/17 08:49:06;;;;;;;9.70;6.03;;;;;;;-144.01;100.00;62166.59;5095844;28;20044;-70
2021/01/17 08:51:33;;;;;;;10.57;6.13;;;;;;;-144.01;100.00;62166.59;5094734;28;20051;-74
2021/01/17 08:54:21;;;;;;;11.40;6.63;;;;;;;-144.01;100.00;62166.59;5095678;28;20052;-70
2021/01/17 08:56:48;;;;;;;9.60;6.17;;;;;;;-144.01;100.00;62166.59;5105497;28;20065;-71
2021/01/17 08:59:33;;;;;;;11.97;6.57;;;;;;;-144.01;100.00;62166.59;5116004;28;20050;-68
2021/01/17 09:02:01;;;;;;;11.00;6.43;;;;;;;-144.01;100.00;62166.59;5103154;28;20047;-68
2021/01/17 09:04:29;;;;;;;9.27;5.83;;;;;;;-144.01;100.00;62166.59;5095950;28;20063;-68
2021/01/17 09:06:57;;;;;;;9.77;6.28;;;;;;;-144.01;100.00;62166.59;5099157;28;20375;-65
2021/01/17 09:09:25;;;;;;;8.82;5.88;;;;;;;-144.01;100.00;62166.59;5111498;28;20043;-68
2021/01/17 09:11:52;;;;;;;9.07;5.15;;;;;;;-144.01;100.00;62166.59;5095216;28;20044;-69
2021/01/17 09:14:29;;;;;;;9.65;5.53;;;;;;;-144.01;100.00;62166.59;5103637;28;20366;-67
2021/01/17 09:17:00;;;;;;;9.35;6.50;;;;;;;-144.01;100.00;62166.59;5107868;28;20055;-71
2021/01/17 09:19:35;;;;;;;10.40;6.20;;;;;;;-144.01;100.00;62166.59;5095554;28;20074;-68
2021/01/17 09:22:04;;;;;;;11.15;6.63;;;;;;;-144.01;100.00;62166.59;5095129;28;20055;-74
2021/01/17 09:24:36;;;;;;;9.82;6.25;;;;;;;-144.01;100.00;62166.59;5095450;28;20044;-68
2021/01/17 09:27:05;;;;;;;10.57;6.55;;;;;;;-144.01;100.00;62166.59;5106402;28;20043;-65
2021/01/17 09:29:36;;;;;;;11.77;7.55;;;;;;;-144.01;100.00;62166.59;5111443;28;20451;-65
2021/01/17 09:32:16;;;;;;;16.65;8.18;;;;;;;-144.01;100.00;62166.59;5097386;28;22019;-73
2021/01/17 09:34:44;;;;;;;14.65;8.57;;;;;;;-144.01;100.00;62166.59;5102188;28;20043;-55
2021/01/17 09:37:14;;;;;;;12.52;7.80;;;;;;;-144.01;100.00;62166.59;5115275;28;20047;-52
2021/01/17 09:39:45;;;;;;;10.25;7.10;;;;;;;-144.01;100.00;62166.59;5107101;28;20047;-52
2021/01/17 09:42:14;;;;;;;14.40;7.80;;;;;;;-144.01;100.00;62166.59;5115516;28;20039;-53
2021/01/17 09:44:43;;;;;;;11.35;7.78;;;;;;;-144.01;100.00;62166.59;5115021;28;20492;-53
2021/01/17 09:47:18;;;;;;;12.80;9.52;;;;;;;-144.01;100.00;62166.59;5106003;28;20064;-52
2021/01/17 09:49:47;;;;;;;14.38;8.18;;;;;;;-144.01;100.00;62166.59;5096808;28;20449;-66
2021/01/17 09:52:16;;;;;;;11.25;8.38;;;;;;;-144.01;100.00;62166.59;5094964;28;20051;-58
2021/01/17 09:54:47;;;;;;;23.63;12.60;;;;;;;-144.01;100.00;62166.59;5095013;28;20055;-61
2021/01/17 09:57:23;;;;;;;22.33;11.45;;;;;;;-144.01;100.00;62166.59;5106649;28;20058;-56
2021/01/17 09:59:52;;;;;;;16.98;9.15;;;;;;;-144.01;100.00;62166.59;5115123;28;20043;-54
2021/01/17 10:02:20;;;;;;;12.73;8.48;;;;;;;-144.01;100.00;62166.59;5113442;28;20063;-56
2021/01/17 10:04:48;;;;;;;10.20;7.97;;;;;;;-144.01;100.00;62166.59;5099250;28;20052;-50
2021/01/17 10:07:20;;;;;;;10.48;7.82;;;;;;;-144.01;100.00;62166.59;5110362;28;20442;-53
2021/01/17 10:09:48;;;;;;;11.07;8.82;;;;;;;-144.01;100.00;62166.59;5119091;28;20044;-55
2021/01/17 10:12:22;;;;;;;16.15;8.75;;;;;;;-144.01;100.00;62166.59;5119006;28;20054;-53
2021/01/17 10:14:49;;;;;;;12.75;8.57;;;;;;;-144.01;100.00;62166.59;5113144;28;20381;-59
2021/01/17 10:17:17;;;;;;;10.60;7.95;;;;;;;-144.01;100.00;62166.59;5118677;28;20055;-62
2021/01/17 10:19:46;;;;;;;12.00;8.00;;;;;;;-144.01;100.00;62166.59;5118940;28;20044;-54
2021/01/17 10:22:15;;;;;;;11.43;8.85;;;;;;;-144.01;100.00;62166.59;5119020;28;20047;-67
2021/01/17 10:24:43;;;;;;;11.68;8.45;;;;;;;-144.01;100.00;62166.59;5119022;28;20055;-56
2021/01/17 10:27:11;;;;;;;10.10;7.35;;;;;;;-144.01;100.00;62166.59;5118229;27;20051;-54
2021/01/17 10:29:40;;;;;;;10.38;7.95;;;;;;;-144.01;100.00;62166.59;5113976;28;20043;-53
2021/01/17 10:32:10;;;;;;;9.88;7.30;;;;;;;-144.01;100.00;62166.59;5118221;28;20039;-52
2021/01/17 10:34:45;;;;;;;10.23;7.85;;;;;;;-144.01;100.00;62166.59;5118595;28;20055;-53
2021/01/17 10:37:17;;;;;;;9.30;7.43;;;;;;;-144.01;100.00;62166.59;5108418;28;20047;-52
2021/01/17 10:39:45;;;;;;;12.30;8.00;;;;;;;-144.01;100.00;62166.59;5118401;28;20048;-51
2021/01/17 10:42:24;;;;;;;11.60;8.80;;;;;;;-144.01;100.00;62166.59;5118787;28;20044;-53
2021/01/17 10:45:05;;;;;;;16.42;10.20;;;;;;;-144.01;100.00;62166.59;5118398;28;20047;-52
2021/01/17 10:47:44;;;;;;;12.50;8.43;;;;;;;-144.01;100.00;62166.59;5113795;28;20377;-53
2021/01/17 10:50:13;;;;;;;13.90;9.13;;;;;;;-144.01;100.00;62166.59;5106607;28;20040;-52
2021/01/17 10:52:55;;;;;;;11.75;8.82;;;;;;;-144.01;100.00;62166.59;5106409;27;20055;-53
2021/01/17 10:55:23;;;;;;;13.27;9.57;;;;;;;-144.01;100.00;62166.59;5109217;28;20052;-53
2021/01/17 10:57:52;;;;;;;12.75;8.32;;;;;;;-144.01;100.00;62166.59;5117481;27;20357;-54
2021/01/17 11:00:19;;;;;;;9.75;7.65;;;;;;;-144.01;100.00;62166.59;5089211;28;20051;-54
2021/01/17 11:03:03;;;;;;;10.35;7.70;;;;;;;-144.01;100.00;62166.59;5101945;28;20048;-61
2021/01/17 11:05:30;;;;;;;10.13;7.40;;;;;;;-144.01;100.00;62166.59;5108246;28;20047;-52
2021/01/17 11:07:58;;;;;;;10.32;7.32;;;;;;;-144.01;100.00;62166.59;5106580;28;20066;-52
2021/01/17 11:10:26;;;;;;;12.35;8.20;;;;;;;-144.01;100.00;62166.59;5106507;28;20058;-52
2021/01/17 11:12:53;;;;;;;12.02;9.38;;;;;;;-144.01;100.00;62166.59;5110343;28;20047;-54
2021/01/17 11:15:21;;;;;;;12.60;9.15;;;;;;;-144.01;100.00;62166.59;5107340;27;20048;-54
2021/01/17 11:17:53;;;;;;;12.35;8.88;;;;;;;-144.01;100.00;62166.59;5097327;28;20047;-50
2021/01/17 11:20:35;;;;;;;18.27;12.65;;;;;;;-144.01;100.00;62166.59;5107150;28;20047;-52
2021/01/17 11:23:04;;;;;;;14.77;11.90;;;;;;;-144.01;100.00;62166.59;5117541;28;20044;-51
2021/01/17 11:25:33;;;;;;;13.27;9.70;;;;;;;-144.01;100.00;62166.59;5102528;28;20044;-52